sensor_id;sensor_type;location;lat;lon;timestamp;pressure;altitude;pressure_sealevel;temperature;humidity
71938;BME280;59810;48.800;9.086;2023-02-10T00:01:27;99462.59;;;-3.44;84.75
71938;BME280;59810;48.800;9.086;2023-02-10T00:03:53;99457.69;;;-3.37;85.46
71938;BME280;59810;48.800;9.086;2023-02-10T00:06:20;99456.25;;;-3.41;84.41
71938;BME280;59810;48.800;9.086;2023-02-10T00:08:47;99460.94;;;-3.34;85.52
71938;BME280;59810;48.800;9.086;2023-02-10T00:11:12;99454.97;;;-3.25;85.18
71938;BME280;59810;48.800;9.086;2023-02-10T00:13:39;99454.25;;;-3.16;85.14
71938;BME280;59810;48.800;9.086;2023-02-10T00:16:06;99453.19;;;-3.13;84.72
71938;BME280;59810;48.800;9.086;2023-02-10T00:18:33;99449.22;;;-3.07;84.38
71938;BME280;59810;48.800;9.086;2023-02-10T00:21:16;99454.00;;;-3.01;84.41
71938;BME280;59810;48.800;9.086;2023-02-10T00:23:42;99452.47;;;-3.04;84.31
71938;BME280;59810;48.800;9.086;2023-02-10T00:26:10;99454.84;;;-3.01;83.90
71938;BME280;59810;48.800;9.086;2023-02-10T00:28:36;99457.38;;;-2.99;83.95
71938;BME280;59810;48.800;9.086;2023-02-10T00:31:06;99452.56;;;-3.05;83.81
71938;BME280;59810;48.800;9.086;2023-02-10T00:33:34;99465.53;;;-3.02;82.85
71938;BME280;59810;48.800;9.086;2023-02-10T00:36:04;99464.34;;;-3.09;81.99
71938;BME280;59810;48.800;9.086;2023-02-10T00:38:32;99464.69;;;-3.14;83.01
71938;BME280;59810;48.800;9.086;2023-02-10T00:43:31;99468.25;;;-3.26;83.27
71938;BME280;59810;48.800;9.086;2023-02-10T00:45:57;99471.25;;;-3.31;83.68
71938;BME280;59810;48.800;9.086;2023-02-10T00:48:22;99482.06;;;-3.34;83.30
71938;BME280;59810;48.800;9.086;2023-02-10T00:50:48;99484.44;;;-3.42;83.02
71938;BME280;59810;48.800;9.086;2023-02-10T00:53:13;99482.38;;;-3.50;83.51
71938;BME280;59810;48.800;9.086;2023-02-10T00:55:41;99490.81;;;-3.45;84.49
71938;BME280;59810;48.800;9.086;2023-02-10T00:58:06;99492.34;;;-3.53;84.74
71938;BME280;59810;48.800;9.086;2023-02-10T01:00:31;99488.03;;;-3.54;84.25
71938;BME280;59810;48.800;9.086;2023-02-10T01:02:59;99483.47;;;-3.52;84.39
71938;BME280;59810;48.800;9.086;2023-02-10T01:05:24;99477.56;;;-3.56;84.42
71938;BME280;59810;48.800;9.086;2023-02-10T01:07:52;99474.31;;;-3.59;84.57
71938;BME280;59810;48.800;9.086;2023-02-10T01:10:18;99473.56;;;-3.61;83.52
71938;BME280;59810;48.800;9.086;2023-02-10T01:12:44;99474.84;;;-3.43;85.20
71938;BME280;59810;48.800;9.086;2023-02-10T01:15:09;99464.91;;;-3.28;85.21
71938;BME280;59810;48.800;9.086;2023-02-10T01:17:35;99465.66;;;-3.15;85.19
71938;BME280;59810;48.800;9.086;2023-02-10T01:20:00;99484.41;;;-3.07;84.43
71938;BME280;59810;48.800;9.086;2023-02-10T01:22:26;99477.78;;;-3.01;83.95
71938;BME280;59810;48.800;9.086;2023-02-10T01:24:51;99477.69;;;-3.00;84.07
71938;BME280;59810;48.800;9.086;2023-02-10T01:27:16;99485.13;;;-3.05;83.94
71938;BME280;59810;48.800;9.086;2023-02-10T01:29:42;99493.66;;;-3.01;83.75
71938;BME280;59810;48.800;9.086;2023-02-10T01:32:07;99485.59;;;-3.11;84.03
71938;BME280;59810;48.800;9.086;2023-02-10T01:34:32;99491.13;;;-3.14;84.16
71938;BME280;59810;48.800;9.086;2023-02-10T01:36:58;99477.91;;;-3.14;83.38
71938;BME280;59810;48.800;9.086;2023-02-10T01:39:23;99476.34;;;-3.17;83.53
71938;BME280;59810;48.800;9.086;2023-02-10T01:48:32;99491.16;;;-3.38;83.27
71938;BME280;59810;48.800;9.086;2023-02-10T01:51:02;99483.84;;;-3.46;83.15
71938;BME280;59810;48.800;9.086;2023-02-10T01:53:30;99494.41;;;-3.46;83.36
71938;BME280;59810;48.800;9.086;2023-02-10T01:55:57;99492.72;;;-3.47;84.03
71938;BME280;59810;48.800;9.086;2023-02-10T01:58:25;99492.09;;;-3.50;83.93
71938;BME280;59810;48.800;9.086;2023-02-10T02:00:51;99504.47;;;-3.51;83.29
71938;BME280;59810;48.800;9.086;2023-02-10T02:03:19;99501.97;;;-3.41;82.73
71938;BME280;59810;48.800;9.086;2023-02-10T02:05:45;99505.19;;;-3.49;82.69
71938;BME280;59810;48.800;9.086;2023-02-10T02:08:17;99502.28;;;-3.57;81.75
71938;BME280;59810;48.800;9.086;2023-02-10T02:27:46;99517.09;;;-3.91;84.05
71938;BME280;59810;48.800;9.086;2023-02-10T02:34:05;99517.22;;;-3.92;83.53
71938;BME280;59810;48.800;9.086;2023-02-10T02:36:41;99525.81;;;-4.01;83.89
71938;BME280;59810;48.800;9.086;2023-02-10T02:39:09;99525.69;;;-4.00;84.12
71938;BME280;59810;48.800;9.086;2023-02-10T02:41:34;99528.56;;;-4.03;84.06
71938;BME280;59810;48.800;9.086;2023-02-10T02:44:03;99525.31;;;-4.07;85.02
71938;BME280;59810;48.800;9.086;2023-02-10T02:46:44;99524.28;;;-4.17;83.68
71938;BME280;59810;48.800;9.086;2023-02-10T02:49:35;99523.97;;;-4.25;84.40
71938;BME280;59810;48.800;9.086;2023-02-10T02:52:39;99516.81;;;-4.23;84.98
71938;BME280;59810;48.800;9.086;2023-02-10T02:57:58;99528.50;;;-4.27;85.39
71938;BME280;59810;48.800;9.086;2023-02-10T03:00:30;99524.19;;;-4.28;84.78
71938;BME280;59810;48.800;9.086;2023-02-10T03:02:57;99524.09;;;-4.26;85.80
71938;BME280;59810;48.800;9.086;2023-02-10T03:05:28;99523.47;;;-4.30;84.92
71938;BME280;59810;48.800;9.086;2023-02-10T03:07:55;99524.31;;;-4.29;85.51
71938;BME280;59810;48.800;9.086;2023-02-10T03:10:21;99525.38;;;-4.32;85.31
71938;BME280;59810;48.800;9.086;2023-02-10T03:12:47;99533.16;;;-4.30;85.58
71938;BME280;59810;48.800;9.086;2023-02-10T03:15:16;99528.75;;;-4.30;85.62
71938;BME280;59810;48.800;9.086;2023-02-10T03:17:43;99531.16;;;-4.27;86.13
71938;BME280;59810;48.800;9.086;2023-02-10T03:20:11;99524.72;;;-4.23;85.65
71938;BME280;59810;48.800;9.086;2023-02-10T03:22:37;99522.28;;;-4.26;86.22
71938;BME280;59810;48.800;9.086;2023-02-10T03:25:02;99524.31;;;-4.29;85.15
71938;BME280;59810;48.800;9.086;2023-02-10T03:27:27;99522.59;;;-4.18;86.68
71938;BME280;59810;48.800;9.086;2023-02-10T03:29:53;99525.53;;;-4.10;86.51
71938;BME280;59810;48.800;9.086;2023-02-10T03:32:19;99515.94;;;-4.11;85.91
71938;BME280;59810;48.800;9.086;2023-02-10T03:34:45;99520.47;;;-4.13;85.53
71938;BME280;59810;48.800;9.086;2023-02-10T03:37:11;99528.94;;;-4.20;85.40
71938;BME280;59810;48.800;9.086;2023-02-10T03:39:37;99537.81;;;-4.21;85.72
71938;BME280;59810;48.800;9.086;2023-02-10T03:42:02;99532.53;;;-4.21;86.56
71938;BME280;59810;48.800;9.086;2023-02-10T03:44:28;99545.81;;;-4.23;86.99
71938;BME280;59810;48.800;9.086;2023-02-10T03:46:53;99548.25;;;-4.20;86.30
71938;BME280;59810;48.800;9.086;2023-02-10T03:49:18;99544.44;;;-4.28;84.89
71938;BME280;59810;48.800;9.086;2023-02-10T03:51:43;99545.19;;;-4.26;86.20
71938;BME280;59810;48.800;9.086;2023-02-10T03:54:09;99549.50;;;-4.25;86.46
71938;BME280;59810;48.800;9.086;2023-02-10T03:56:34;99549.72;;;-4.28;86.55
71938;BME280;59810;48.800;9.086;2023-02-10T03:59:06;99553.31;;;-4.29;87.15
71938;BME280;59810;48.800;9.086;2023-02-10T04:01:34;99556.38;;;-4.23;87.00
71938;BME280;59810;48.800;9.086;2023-02-10T04:03:59;99560.16;;;-4.27;86.29
71938;BME280;59810;48.800;9.086;2023-02-10T04:06:25;99552.97;;;-4.25;86.92
71938;BME280;59810;48.800;9.086;2023-02-10T04:08:53;99551.41;;;-4.27;87.12
71938;BME280;59810;48.800;9.086;2023-02-10T04:11:21;99550.44;;;-4.26;86.09
71938;BME280;59810;48.800;9.086;2023-02-10T04:13:47;99548.47;;;-4.23;87.24
71938;BME280;59810;48.800;9.086;2023-02-10T04:16:14;99546.56;;;-4.21;86.99
71938;BME280;59810;48.800;9.086;2023-02-10T04:18:40;99555.41;;;-4.22;86.54
71938;BME280;59810;48.800;9.086;2023-02-10T04:21:08;99541.06;;;-4.30;86.18
71938;BME280;59810;48.800;9.086;2023-02-10T04:23:35;99549.81;;;-4.30;86.73
71938;BME280;59810;48.800;9.086;2023-02-10T04:26:01;99540.34;;;-4.32;86.90
71938;BME280;59810;48.800;9.086;2023-02-10T04:28:26;99545.72;;;-4.34;87.02
71938;BME280;59810;48.800;9.086;2023-02-10T04:30:53;99546.56;;;-4.33;87.55
71938;BME280;59810;48.800;9.086;2023-02-10T04:33:20;99550.25;;;-4.36;85.90
71938;BME280;59810;48.800;9.086;2023-02-10T04:35:48;99556.59;;;-4.39;86.74
71938;BME280;59810;48.800;9.086;2023-02-10T04:38:14;99556.38;;;-4.35;86.06
71938;BME280;59810;48.800;9.086;2023-02-10T04:40:40;99553.75;;;-4.35;87.12
71938;BME280;59810;48.800;9.086;2023-02-10T04:43:05;99559.34;;;-4.40;86.53
71938;BME280;59810;48.800;9.086;2023-02-10T04:45:31;99564.63;;;-4.40;87.45
71938;BME280;59810;48.800;9.086;2023-02-10T04:47:56;99561.88;;;-4.39;87.11
71938;BME280;59810;48.800;9.086;2023-02-10T04:50:22;99553.34;;;-4.42;86.86
71938;BME280;59810;48.800;9.086;2023-02-10T04:52:47;99558.00;;;-4.46;87.02
71938;BME280;59810;48.800;9.086;2023-02-10T04:55:12;99557.25;;;-4.48;87.03
71938;BME280;59810;48.800;9.086;2023-02-10T04:57:38;99570.31;;;-4.46;86.71
71938;BME280;59810;48.800;9.086;2023-02-10T05:00:08;99561.06;;;-4.52;86.51
71938;BME280;59810;48.800;9.086;2023-02-10T05:02:34;99564.94;;;-4.45;86.99
71938;BME280;59810;48.800;9.086;2023-02-10T05:04:59;99562.63;;;-4.49;86.62
71938;BME280;59810;48.800;9.086;2023-02-10T05:07:25;99569.06;;;-4.53;86.26
71938;BME280;59810;48.800;9.086;2023-02-10T05:09:50;99575.28;;;-4.54;87.33
71938;BME280;59810;48.800;9.086;2023-02-10T05:12:16;99574.34;;;-4.53;87.21
71938;BME280;59810;48.800;9.086;2023-02-10T05:14:41;99568.34;;;-4.55;86.78
71938;BME280;59810;48.800;9.086;2023-02-10T05:17:09;99576.25;;;-4.55;86.51
71938;BME280;59810;48.800;9.086;2023-02-10T05:19:34;99578.34;;;-4.60;86.19
71938;BME280;59810;48.800;9.086;2023-02-10T05:21:59;99581.91;;;-4.61;86.12
71938;BME280;59810;48.800;9.086;2023-02-10T05:24:25;99579.28;;;-4.61;87.49
71938;BME280;59810;48.800;9.086;2023-02-10T05:26:50;99580.97;;;-4.60;87.46
71938;BME280;59810;48.800;9.086;2023-02-10T05:29:15;99587.28;;;-4.63;86.15
71938;BME280;59810;48.800;9.086;2023-02-10T05:31:41;99583.81;;;-4.63;86.80
71938;BME280;59810;48.800;9.086;2023-02-10T05:34:08;99586.56;;;-4.65;86.99
71938;BME280;59810;48.800;9.086;2023-02-10T05:36:34;99579.50;;;-4.64;88.09
71938;BME280;59810;48.800;9.086;2023-02-10T05:38:59;99580.22;;;-4.62;87.81
71938;BME280;59810;48.800;9.086;2023-02-10T05:41:43;99583.50;;;-4.59;87.02
71938;BME280;59810;48.800;9.086;2023-02-10T05:44:14;99585.41;;;-4.61;87.05
71938;BME280;59810;48.800;9.086;2023-02-10T05:46:41;99594.56;;;-4.66;86.79
71938;BME280;59810;48.800;9.086;2023-02-10T05:49:17;99602.16;;;-4.62;86.45
71938;BME280;59810;48.800;9.086;2023-02-10T05:51:43;99597.94;;;-4.64;86.99
71938;BME280;59810;48.800;9.086;2023-02-10T05:54:11;99593.84;;;-4.68;87.08
71938;BME280;59810;48.800;9.086;2023-02-10T05:56:39;99601.75;;;-4.68;87.56
71938;BME280;59810;48.800;9.086;2023-02-10T05:59:05;99599.41;;;-4.73;88.06
71938;BME280;59810;48.800;9.086;2023-02-10T06:01:31;99607.13;;;-4.70;87.37
71938;BME280;59810;48.800;9.086;2023-02-10T06:03:57;99606.78;;;-4.65;86.75
71938;BME280;59810;48.800;9.086;2023-02-10T06:06:25;99601.72;;;-4.56;85.93
71938;BME280;59810;48.800;9.086;2023-02-10T06:08:50;99610.16;;;-4.63;86.10
71938;BME280;59810;48.800;9.086;2023-02-10T06:11:15;99615.03;;;-4.70;87.52
71938;BME280;59810;48.800;9.086;2023-02-10T06:13:41;99626.19;;;-4.66;86.08
71938;BME280;59810;48.800;9.086;2023-02-10T06:16:08;99632.72;;;-4.72;86.59
71938;BME280;59810;48.800;9.086;2023-02-10T06:18:33;99641.69;;;-4.75;86.92
71938;BME280;59810;48.800;9.086;2023-02-10T06:20:58;99640.41;;;-4.82;87.00
71938;BME280;59810;48.800;9.086;2023-02-10T06:23:27;99640.31;;;-4.80;86.04
71938;BME280;59810;48.800;9.086;2023-02-10T06:25:54;99644.09;;;-4.84;87.53
71938;BME280;59810;48.800;9.086;2023-02-10T06:28:22;99644.00;;;-4.83;86.42
71938;BME280;59810;48.800;9.086;2023-02-10T06:30:48;99661.03;;;-4.88;86.39
71938;BME280;59810;48.800;9.086;2023-02-10T06:33:14;99660.41;;;-4.92;86.91
71938;BME280;59810;48.800;9.086;2023-02-10T06:35:39;99663.88;;;-4.91;86.80
71938;BME280;59810;48.800;9.086;2023-02-10T06:38:07;99655.97;;;-4.91;87.68
71938;BME280;59810;48.800;9.086;2023-02-10T06:40:33;99659.44;;;-4.91;85.22
71938;BME280;59810;48.800;9.086;2023-02-10T06:42:58;99665.66;;;-4.92;86.54
71938;BME280;59810;48.800;9.086;2023-02-10T06:45:23;99663.97;;;-4.93;87.46
71938;BME280;59810;48.800;9.086;2023-02-10T06:47:49;99667.56;;;-4.94;87.21
71938;BME280;59810;48.800;9.086;2023-02-10T06:50:14;99671.66;;;-4.90;87.73
71938;BME280;59810;48.800;9.086;2023-02-10T06:52:42;99673.66;;;-4.93;87.38
71938;BME280;59810;48.800;9.086;2023-02-10T06:55:08;99678.84;;;-4.92;87.86
71938;BME280;59810;48.800;9.086;2023-02-10T06:57:34;99682.03;;;-4.87;88.38
71938;BME280;59810;48.800;9.086;2023-02-10T07:00:04;99692.38;;;-4.84;87.81
71938;BME280;59810;48.800;9.086;2023-02-10T07:02:30;99686.53;;;-4.89;87.76
71938;BME280;59810;48.800;9.086;2023-02-10T07:04:55;99686.53;;;-4.89;88.05
71938;BME280;59810;48.800;9.086;2023-02-10T07:07:20;99694.03;;;-4.83;88.10
71938;BME280;59810;48.800;9.086;2023-02-10T07:09:46;99694.25;;;-4.86;87.53
71938;BME280;59810;48.800;9.086;2023-02-10T07:12:11;99689.53;;;-4.81;88.10
71938;BME280;59810;48.800;9.086;2023-02-10T07:14:39;99687.00;;;-4.82;87.17
71938;BME280;59810;48.800;9.086;2023-02-10T07:17:04;99683.94;;;-4.76;86.41
71938;BME280;59810;48.800;9.086;2023-02-10T07:19:30;99679.94;;;-4.82;87.45
71938;BME280;59810;48.800;9.086;2023-02-10T07:21:56;99674.13;;;-4.74;88.09
71938;BME280;59810;48.800;9.086;2023-02-10T07:24:24;99683.41;;;-4.68;86.69
71938;BME280;59810;48.800;9.086;2023-02-10T07:26:49;99683.09;;;-4.64;87.04
71938;BME280;59810;48.800;9.086;2023-02-10T07:29:14;99700.81;;;-4.66;87.29
71938;BME280;59810;48.800;9.086;2023-02-10T07:31:42;99689.56;;;-4.55;87.01
71938;BME280;59810;48.800;9.086;2023-02-10T07:34:07;99695.75;;;-4.56;86.72
71938;BME280;59810;48.800;9.086;2023-02-10T07:36:33;99695.38;;;-4.50;86.40
71938;BME280;59810;48.800;9.086;2023-02-10T07:38:58;99698.13;;;-4.52;86.55
71938;BME280;59810;48.800;9.086;2023-02-10T07:41:23;99701.16;;;-4.45;86.55
71938;BME280;59810;48.800;9.086;2023-02-10T07:43:49;99709.50;;;-4.39;86.70
71938;BME280;59810;48.800;9.086;2023-02-10T07:46:14;99708.97;;;-4.31;88.17
71938;BME280;59810;48.800;9.086;2023-02-10T07:48:40;99707.81;;;-4.27;87.83
71938;BME280;59810;48.800;9.086;2023-02-10T07:51:05;99702.31;;;-4.24;87.35
71938;BME280;59810;48.800;9.086;2023-02-10T07:53:33;99704.56;;;-4.18;87.35
71938;BME280;59810;48.800;9.086;2023-02-10T07:55:58;99692.63;;;-4.11;87.49
71938;BME280;59810;48.800;9.086;2023-02-10T07:58:25;99675.63;;;-4.07;87.44
71938;BME280;59810;48.800;9.086;2023-02-10T08:00:50;99675.72;;;-3.95;87.35
71938;BME280;59810;48.800;9.086;2023-02-10T08:03:18;99683.31;;;-3.91;87.02
71938;BME280;59810;48.800;9.086;2023-02-10T08:05:45;99687.22;;;-3.84;87.57
71938;BME280;59810;48.800;9.086;2023-02-10T08:08:12;99687.13;;;-3.82;87.05
71938;BME280;59810;48.800;9.086;2023-02-10T08:10:41;99692.78;;;-3.76;86.62
71938;BME280;59810;48.800;9.086;2023-02-10T08:13:06;99679.28;;;-3.71;86.54
71938;BME280;59810;48.800;9.086;2023-02-10T08:15:32;99691.28;;;-3.67;85.98
71938;BME280;59810;48.800;9.086;2023-02-10T08:17:59;99696.13;;;-3.61;85.76
71938;BME280;59810;48.800;9.086;2023-02-10T08:20:26;99690.66;;;-3.58;86.27
71938;BME280;59810;48.800;9.086;2023-02-10T08:22:55;99705.09;;;-3.51;85.98
71938;BME280;59810;48.800;9.086;2023-02-10T08:25:21;99702.84;;;-3.44;85.56
71938;BME280;59810;48.800;9.086;2023-02-10T08:27:49;99712.97;;;-3.38;85.37
71938;BME280;59810;48.800;9.086;2023-02-10T08:30:14;99709.88;;;-3.32;84.87
71938;BME280;59810;48.800;9.086;2023-02-10T08:32:40;99705.09;;;-3.27;84.35
71938;BME280;59810;48.800;9.086;2023-02-10T08:35:05;99711.66;;;-3.20;84.55
71938;BME280;59810;48.800;9.086;2023-02-10T08:37:31;99698.84;;;-3.13;84.49
71938;BME280;59810;48.800;9.086;2023-02-10T08:39:56;99716.16;;;-3.09;83.48
71938;BME280;59810;48.800;9.086;2023-02-10T08:42:26;99712.22;;;-3.03;83.93
71938;BME280;59810;48.800;9.086;2023-02-10T08:44:51;99703.81;;;-2.97;84.05
71938;BME280;59810;48.800;9.086;2023-02-10T08:47:16;99698.94;;;-2.91;83.95
71938;BME280;59810;48.800;9.086;2023-02-10T08:49:42;99698.50;;;-2.85;83.33
71938;BME280;59810;48.800;9.086;2023-02-10T08:52:09;99704.38;;;-2.81;83.83
71938;BME280;59810;48.800;9.086;2023-02-10T08:54:37;99704.31;;;-2.68;83.77
71938;BME280;59810;48.800;9.086;2023-02-10T08:57:03;99707.72;;;-2.55;86.48
71938;BME280;59810;48.800;9.086;2023-02-10T08:59:30;99702.69;;;-2.47;88.05
71938;BME280;59810;48.800;9.086;2023-02-10T09:01:56;99706.69;;;-2.41;84.69
71938;BME280;59810;48.800;9.086;2023-02-10T09:04:23;99700.91;;;-2.35;82.97
71938;BME280;59810;48.800;9.086;2023-02-10T09:06:51;99709.22;;;-2.29;82.08
71938;BME280;59810;48.800;9.086;2023-02-10T09:09:19;99697.34;;;-2.23;81.45
71938;BME280;59810;48.800;9.086;2023-02-10T09:11:47;99704.09;;;-2.19;81.61
71938;BME280;59810;48.800;9.086;2023-02-10T09:14:13;99708.78;;;-2.11;81.56
71938;BME280;59810;48.800;9.086;2023-02-10T09:16:39;99714.44;;;-2.05;81.25
71938;BME280;59810;48.800;9.086;2023-02-10T09:19:04;99713.00;;;-1.98;81.12
71938;BME280;59810;48.800;9.086;2023-02-10T09:21:30;99704.34;;;-1.89;81.13
71938;BME280;59810;48.800;9.086;2023-02-10T09:23:56;99712.41;;;-1.79;80.82
71938;BME280;59810;48.800;9.086;2023-02-10T09:26:21;99716.13;;;-1.70;81.14
71938;BME280;59810;48.800;9.086;2023-02-10T09:28:49;99713.00;;;-1.64;81.17
71938;BME280;59810;48.800;9.086;2023-02-10T09:31:14;99714.09;;;-1.55;81.21
71938;BME280;59810;48.800;9.086;2023-02-10T09:33:44;99716.25;;;-1.49;81.11
71938;BME280;59810;48.800;9.086;2023-02-10T09:36:15;99719.00;;;-1.40;80.88
71938;BME280;59810;48.800;9.086;2023-02-10T09:38:40;99716.34;;;-1.29;80.34
71938;BME280;59810;48.800;9.086;2023-02-10T09:41:31;99708.38;;;-1.17;79.98
71938;BME280;59810;48.800;9.086;2023-02-10T09:44:22;99708.47;;;-1.08;79.53
71938;BME280;59810;48.800;9.086;2023-02-10T09:55:13;99712.94;;;-0.76;79.64
71938;BME280;59810;48.800;9.086;2023-02-10T09:57:43;99707.13;;;-0.70;79.18
71938;BME280;59810;48.800;9.086;2023-02-10T10:02:52;99709.22;;;-0.53;78.50
71938;BME280;59810;48.800;9.086;2023-02-10T10:08:43;99695.84;;;-0.30;77.36
71938;BME280;59810;48.800;9.086;2023-02-10T10:11:30;99699.41;;;-0.20;77.02
71938;BME280;59810;48.800;9.086;2023-02-10T10:13:58;99699.31;;;-0.09;76.23
71938;BME280;59810;48.800;9.086;2023-02-10T10:19:24;99713.31;;;0.23;72.49
71938;BME280;59810;48.800;9.086;2023-02-10T10:22:18;99713.09;;;0.36;72.18
71938;BME280;59810;48.800;9.086;2023-02-10T10:24:57;99711.31;;;0.46;69.41
71938;BME280;59810;48.800;9.086;2023-02-10T10:33:14;99706.84;;;1.16;66.98
71938;BME280;59810;48.800;9.086;2023-02-10T10:35:47;99706.72;;;1.27;67.24
71938;BME280;59810;48.800;9.086;2023-02-10T10:38:23;99706.88;;;1.45;62.76
71938;BME280;59810;48.800;9.086;2023-02-10T10:40:52;99703.78;;;1.69;62.43
71938;BME280;59810;48.800;9.086;2023-02-10T10:43:29;99708.47;;;1.94;60.31
71938;BME280;59810;48.800;9.086;2023-02-10T10:46:01;99707.59;;;2.13;60.29
71938;BME280;59810;48.800;9.086;2023-02-10T10:48:30;99714.44;;;2.25;59.18
71938;BME280;59810;48.800;9.086;2023-02-10T10:51:02;99708.50;;;2.41;54.71
71938;BME280;59810;48.800;9.086;2023-02-10T10:59:32;99690.63;;;2.51;56.24
71938;BME280;59810;48.800;9.086;2023-02-10T11:01:58;99694.97;;;2.52;56.46
71938;BME280;59810;48.800;9.086;2023-02-10T11:04:26;99694.38;;;2.58;55.87
71938;BME280;59810;48.800;9.086;2023-02-10T11:06:55;99692.13;;;2.63;56.49
71938;BME280;59810;48.800;9.086;2023-02-10T11:09:40;99692.59;;;2.76;54.58
71938;BME280;59810;48.800;9.086;2023-02-10T11:12:30;99691.09;;;2.92;53.80
71938;BME280;59810;48.800;9.086;2023-02-10T11:14:57;99696.16;;;3.12;53.65
71938;BME280;59810;48.800;9.086;2023-02-10T11:17:40;99690.53;;;3.33;54.23
71938;BME280;59810;48.800;9.086;2023-02-10T11:22:39;99696.00;;;3.50;51.18
71938;BME280;59810;48.800;9.086;2023-02-10T11:25:37;99694.09;;;3.60;52.01
71938;BME280;59810;48.800;9.086;2023-02-10T11:28:15;99694.16;;;3.68;51.52
71938;BME280;59810;48.800;9.086;2023-02-10T11:30:41;99686.94;;;3.86;51.67
71938;BME280;59810;48.800;9.086;2023-02-10T11:33:19;99696.53;;;3.97;50.45
71938;BME280;59810;48.800;9.086;2023-02-10T11:35:50;99702.09;;;4.03;49.78
71938;BME280;59810;48.800;9.086;2023-02-10T11:38:20;99703.44;;;4.07;49.08
71938;BME280;59810;48.800;9.086;2023-02-10T11:40:59;99691.41;;;4.03;49.79
71938;BME280;59810;48.800;9.086;2023-02-10T11:43:31;99688.47;;;4.15;48.99
71938;BME280;59810;48.800;9.086;2023-02-10T11:46:00;99683.38;;;4.29;49.57
71938;BME280;59810;48.800;9.086;2023-02-10T11:48:30;99689.44;;;4.40;48.81
71938;BME280;59810;48.800;9.086;2023-02-10T11:51:05;99686.97;;;4.46;48.24
71938;BME280;59810;48.800;9.086;2023-02-10T11:53:34;99688.31;;;4.50;47.56
71938;BME280;59810;48.800;9.086;2023-02-10T12:05:06;99676.44;;;4.95;47.97
71938;BME280;59810;48.800;9.086;2023-02-10T12:07:25;99675.63;;;5.03;46.73
71938;BME280;59810;48.800;9.086;2023-02-10T12:10:02;99665.59;;;5.05;47.04
71938;BME280;59810;48.800;9.086;2023-02-10T12:26:26;99664.47;;;5.56;45.58
71938;BME280;59810;48.800;9.086;2023-02-10T12:48:38;99643.69;;;5.74;48.29
71938;BME280;59810;48.800;9.086;2023-02-10T12:51:21;99640.19;;;5.90;49.43
71938;BME280;59810;48.800;9.086;2023-02-10T12:53:57;99641.88;;;5.58;48.53
71938;BME280;59810;48.800;9.086;2023-02-10T12:56:37;99632.81;;;5.68;48.32
71938;BME280;59810;48.800;9.086;2023-02-10T12:59:18;99630.44;;;5.81;48.74
71938;BME280;59810;48.800;9.086;2023-02-10T13:01:59;99623.59;;;5.70;49.47
71938;BME280;59810;48.800;9.086;2023-02-10T13:04:48;99625.59;;;5.92;49.11
71938;BME280;59810;48.800;9.086;2023-02-10T13:10:17;99621.50;;;6.13;48.93
71938;BME280;59810;48.800;9.086;2023-02-10T13:12:45;99634.22;;;6.27;49.08
71938;BME280;59810;48.800;9.086;2023-02-10T13:17:59;99632.03;;;6.31;48.72
71938;BME280;59810;48.800;9.086;2023-02-10T13:20:42;99628.69;;;6.29;48.58
71938;BME280;59810;48.800;9.086;2023-02-10T13:36:27;99629.44;;;6.45;46.33
71938;BME280;59810;48.800;9.086;2023-02-10T13:39:05;99639.03;;;6.40;46.57
71938;BME280;59810;48.800;9.086;2023-02-10T13:41:39;99640.03;;;6.39;47.01
71938;BME280;59810;48.800;9.086;2023-02-10T13:44:30;99633.84;;;6.38;47.00
71938;BME280;59810;48.800;9.086;2023-02-10T13:50:15;99636.91;;;6.27;46.88
71938;BME280;59810;48.800;9.086;2023-02-10T13:53:02;99642.19;;;6.43;46.45
71938;BME280;59810;48.800;9.086;2023-02-10T16:43:01;99622.28;;;1.39;67.41
71938;BME280;59810;48.800;9.086;2023-02-10T16:45:29;99630.84;;;1.33;67.85
71938;BME280;59810;48.800;9.086;2023-02-10T16:47:58;99626.19;;;1.25;68.38
71938;BME280;59810;48.800;9.086;2023-02-10T16:52:50;99637.72;;;1.06;69.32
71938;BME280;59810;48.800;9.086;2023-02-10T16:55:15;99640.91;;;0.90;70.96
71938;BME280;59810;48.800;9.086;2023-02-10T16:57:43;99639.38;;;0.78;71.87
71938;BME280;59810;48.800;9.086;2023-02-10T17:00:10;99638.25;;;0.71;71.54
71938;BME280;59810;48.800;9.086;2023-02-10T17:02:35;99639.63;;;0.66;71.79
71938;BME280;59810;48.800;9.086;2023-02-10T17:05:01;99646.72;;;0.55;72.80
71938;BME280;59810;48.800;9.086;2023-02-10T17:07:26;99645.72;;;0.47;73.17
71938;BME280;59810;48.800;9.086;2023-02-10T17:09:51;99657.63;;;0.43;72.79
71938;BME280;59810;48.800;9.086;2023-02-10T17:12:17;99648.50;;;0.36;72.92
71938;BME280;59810;48.800;9.086;2023-02-10T17:14:42;99646.22;;;0.31;73.22
71938;BME280;59810;48.800;9.086;2023-02-10T17:17:09;99656.16;;;0.29;73.24
71938;BME280;59810;48.800;9.086;2023-02-10T17:19:34;99647.63;;;0.25;73.61
71938;BME280;59810;48.800;9.086;2023-02-10T17:22:00;99652.22;;;0.23;73.57
71938;BME280;59810;48.800;9.086;2023-02-10T17:24:27;99647.63;;;0.25;73.45
71938;BME280;59810;48.800;9.086;2023-02-10T17:26:55;99651.25;;;0.24;74.42
71938;BME280;59810;48.800;9.086;2023-02-10T17:29:21;99652.94;;;0.25;73.27
71938;BME280;59810;48.800;9.086;2023-02-10T17:31:47;99647.63;;;0.25;73.59
71938;BME280;59810;48.800;9.086;2023-02-10T17:34:13;99650.28;;;0.25;73.37
71938;BME280;59810;48.800;9.086;2023-02-10T17:36:39;99650.13;;;0.27;73.54
71938;BME280;59810;48.800;9.086;2023-02-10T17:39:04;99653.63;;;0.27;73.62
71938;BME280;59810;48.800;9.086;2023-02-10T17:41:48;99655.44;;;0.27;73.38
71938;BME280;59810;48.800;9.086;2023-02-10T17:44:15;99654.47;;;0.28;74.93
71938;BME280;59810;48.800;9.086;2023-02-10T17:46:41;99655.59;;;0.25;74.08
71938;BME280;59810;48.800;9.086;2023-02-10T17:49:10;99657.81;;;0.20;74.97
71938;BME280;59810;48.800;9.086;2023-02-10T17:51:35;99660.72;;;0.17;74.37
71938;BME280;59810;48.800;9.086;2023-02-10T17:54:03;99667.84;;;0.17;73.99
71938;BME280;59810;48.800;9.086;2023-02-10T17:56:28;99661.72;;;0.16;73.89
71938;BME280;59810;48.800;9.086;2023-02-10T17:58:56;99669.69;;;0.16;74.19
71938;BME280;59810;48.800;9.086;2023-02-10T18:01:28;99669.94;;;0.13;74.33
71938;BME280;59810;48.800;9.086;2023-02-10T18:03:57;99666.31;;;0.14;74.14
71938;BME280;59810;48.800;9.086;2023-02-10T18:06:23;99665.59;;;0.12;73.95
71938;BME280;59810;48.800;9.086;2023-02-10T18:08:54;99675.78;;;0.07;74.15